createdAt,value
2023-04-16T00:00:52.023Z,1261.8
2023-04-16T00:02:35.414Z,1264.1
2023-04-16T00:06:01.896Z,1260.2
2023-04-16T00:07:45.276Z,1254.3
2023-04-16T00:09:28.701Z,1253.8
2023-04-16T00:11:12.084Z,1253.7
2023-04-16T00:12:55.484Z,1254.7
2023-04-16T00:14:38.870Z,1252.8
2023-04-16T00:16:22.269Z,1252.7
2023-04-16T00:18:05.662Z,1251
2023-04-16T00:19:49.064Z,1249.5
2023-04-16T00:23:15.539Z,1252.7
2023-04-16T00:24:58.930Z,1252.2
2023-04-16T00:26:42.333Z,1255.1
2023-04-16T00:28:25.721Z,1257.3
2023-04-16T00:30:09.143Z,1258.4
2023-04-16T00:31:52.520Z,1256.3
2023-04-16T00:35:19.312Z,1252.6
2023-04-16T00:37:02.712Z,1251.2
2023-04-16T00:38:46.093Z,1254.3
2023-04-16T00:40:29.810Z,1256.5
2023-04-16T00:42:13.195Z,1254.6
2023-04-16T00:43:56.585Z,1254.5
2023-04-16T00:45:40.019Z,1253.3
2023-04-16T00:47:23.401Z,1253.6
2023-04-16T00:49:06.800Z,1250.1
2023-04-16T00:50:50.213Z,1247.8
2023-04-16T00:52:33.615Z,1244.6
2023-04-16T00:54:16.981Z,1240.3
2023-04-16T00:59:26.209Z,1239.9
2023-04-16T01:01:09.618Z,1243.4
2023-04-16T01:02:53.033Z,1246.7
2023-04-16T01:04:36.413Z,1247.3
2023-04-16T01:06:19.805Z,1243.3
2023-04-16T01:08:03.226Z,1240
2023-04-16T01:09:46.613Z,1241
2023-04-16T01:11:29.996Z,1239.8
2023-04-16T01:13:13.409Z,1239.3
2023-04-16T01:18:22.636Z,1238.8
2023-04-16T01:20:06.040Z,1237.8
2023-04-16T01:21:49.427Z,1232
2023-04-16T01:23:32.826Z,1196.3
2023-04-16T01:25:16.229Z,1139.8
2023-04-16T01:26:59.621Z,1119.8
2023-04-16T01:28:43.019Z,1100
2023-04-16T01:30:26.521Z,1083.2
2023-04-16T01:35:35.651Z,1055.1
2023-04-16T01:37:19.055Z,1049.4
2023-04-16T01:39:02.449Z,1050
2023-04-16T01:40:45.849Z,1050
2023-04-16T01:42:29.258Z,1050.2
2023-04-16T01:44:12.647Z,1048.2
2023-04-16T01:45:56.046Z,1044.7
2023-04-16T01:47:39.438Z,1045.1
2023-04-16T01:52:48.669Z,1038.1
2023-04-16T01:54:32.087Z,1038.6
2023-04-16T01:56:15.497Z,1035.7
2023-04-16T01:57:58.864Z,1031.1
2023-04-16T01:59:42.265Z,1028.8
2023-04-16T02:01:25.671Z,1027.6
2023-04-16T02:03:09.070Z,1028.8
2023-04-16T02:04:52.450Z,1030
2023-04-16T02:08:18.926Z,1024.5
2023-04-16T02:10:02.333Z,1019.6
2023-04-16T02:11:45.720Z,1016
2023-04-16T02:13:29.119Z,1014.4
2023-04-16T02:15:12.531Z,1011.6
2023-04-16T02:16:55.928Z,1007.8
2023-04-16T02:18:39.313Z,1006.5
2023-04-16T02:20:22.710Z,1003.7
2023-04-16T02:23:49.168Z,994.2
2023-04-16T02:25:32.587Z,991
2023-04-16T02:27:15.966Z,988.5
2023-04-16T02:28:59.369Z,986.3
2023-04-16T02:30:42.791Z,982.3
2023-04-16T02:32:26.157Z,980
2023-04-16T02:34:09.553Z,978.4
2023-04-16T02:35:52.949Z,976.2
2023-04-16T02:41:02.196Z,960.8
2023-04-16T02:42:45.595Z,955.1
2023-04-16T02:44:28.997Z,952.3
2023-04-16T02:46:12.391Z,950.3
2023-04-16T02:47:55.793Z,951
2023-04-16T02:49:39.184Z,947.1
2023-04-16T02:51:22.570Z,939.6
2023-04-16T02:53:05.973Z,932.7
2023-04-16T02:56:32.434Z,926.2
2023-04-16T02:58:15.837Z,924.2
2023-04-16T02:59:59.240Z,922.6
2023-04-16T03:01:42.636Z,921
2023-04-16T03:03:26.046Z,919
2023-04-16T03:05:09.436Z,917.1
2023-04-16T03:06:52.816Z,914.2
2023-04-16T03:08:36.212Z,908.8
2023-04-16T03:13:45.471Z,896.4
2023-04-16T03:15:28.863Z,894.2
2023-04-16T03:17:12.274Z,894.2
2023-04-16T03:18:55.649Z,894.7
2023-04-16T03:20:39.065Z,894.1
2023-04-16T03:22:22.438Z,894
2023-04-16T03:24:05.847Z,892.1
2023-04-16T03:25:49.239Z,888
2023-04-16T03:29:15.709Z,881.5
2023-04-16T03:30:59.116Z,880.8
2023-04-16T03:32:42.504Z,877.1
2023-04-16T03:34:25.904Z,874.7
2023-04-16T03:36:09.290Z,869.5
2023-04-16T03:37:52.693Z,865.2
2023-04-16T03:39:36.080Z,863.3
2023-04-16T03:41:19.487Z,862.1
2023-04-16T03:44:45.970Z,858.2
2023-04-16T03:46:29.368Z,854.4
2023-04-16T03:48:12.762Z,850.6
2023-04-16T03:49:56.151Z,848.1
2023-04-16T03:51:39.555Z,851.6
2023-04-16T03:53:22.939Z,849
2023-04-16T03:55:06.337Z,844.1
2023-04-16T03:56:49.745Z,840.8
2023-04-16T04:00:16.206Z,835.8
2023-04-16T04:01:59.616Z,835.6
2023-04-16T04:03:43.009Z,837.4
2023-04-16T04:05:26.399Z,833.3
2023-04-16T04:07:09.801Z,828.5
2023-04-16T04:08:53.200Z,826.8
2023-04-16T04:10:36.603Z,829.5
2023-04-16T04:12:20.003Z,828.3
2023-04-16T04:15:46.460Z,823.9
2023-04-16T04:17:29.844Z,821.6
2023-04-16T04:19:13.261Z,822.2
2023-04-16T04:20:56.645Z,823.6
2023-04-16T04:22:40.077Z,822.5
2023-04-16T04:24:23.435Z,821.8
2023-04-16T04:26:06.876Z,819.8
2023-04-16T04:27:50.245Z,816.5
2023-04-16T04:31:16.705Z,814.5
2023-04-16T04:33:00.106Z,812.3
2023-04-16T04:34:43.505Z,808.1
2023-04-16T04:36:26.918Z,800.7
2023-04-16T04:38:10.293Z,796.1
2023-04-16T04:39:53.682Z,798.1
2023-04-16T04:41:37.085Z,796.4
2023-04-16T04:46:46.323Z,788.6
2023-04-16T04:48:29.727Z,784.7
2023-04-16T04:50:13.122Z,782.5
2023-04-16T04:51:56.529Z,781.1
2023-04-16T04:53:39.904Z,776.6
2023-04-16T04:55:23.312Z,771.1
2023-04-16T04:57:06.698Z,764.6
2023-04-16T04:58:50.104Z,762.6
2023-04-16T05:02:16.581Z,764.8
2023-04-16T05:03:59.973Z,760.8
2023-04-16T05:05:43.420Z,762.8
2023-04-16T05:07:26.789Z,766.2
2023-04-16T05:09:10.163Z,764.4
2023-04-16T05:10:53.580Z,765.5
2023-04-16T05:12:36.949Z,760.5
2023-04-16T05:14:20.369Z,759.7
2023-04-16T05:19:29.638Z,755.5
2023-04-16T05:21:12.998Z,749.6
2023-04-16T05:22:56.381Z,746.5
2023-04-16T05:24:39.812Z,743.7
2023-04-16T05:26:23.189Z,744.6
2023-04-16T05:28:06.567Z,744
2023-04-16T05:29:49.961Z,744.1
2023-04-16T05:31:33.368Z,741.8
2023-04-16T05:36:42.608Z,739.4
2023-04-16T05:38:26.002Z,737.2
2023-04-16T05:40:09.414Z,735.3
2023-04-16T05:41:52.799Z,735
2023-04-16T05:43:36.179Z,734.8
2023-04-16T05:45:19.590Z,734.6
2023-04-16T05:47:02.968Z,741.5
2023-04-16T05:48:46.372Z,741.3
2023-04-16T05:52:12.844Z,802.9
2023-04-16T05:53:56.246Z,870.7
2023-04-16T05:55:39.661Z,851.8
2023-04-16T05:57:23.028Z,835.1
2023-04-16T05:59:06.436Z,837.8
2023-04-16T06:00:49.813Z,841.1
2023-04-16T06:02:33.222Z,844.4
2023-04-16T06:04:16.620Z,840.5
2023-04-16T06:07:43.095Z,886.3
2023-04-16T06:09:26.490Z,927.8
2023-04-16T06:11:09.888Z,907.3
2023-04-16T06:12:53.276Z,899.2
2023-04-16T06:14:36.701Z,895.2
2023-04-16T06:16:20.065Z,892.8
2023-04-16T06:18:03.473Z,895.4
2023-04-16T06:19:46.868Z,895.5
2023-04-16T06:24:56.220Z,906.2
2023-04-16T06:26:39.494Z,908.8
2023-04-16T06:28:22.888Z,906.3
2023-04-16T06:30:06.287Z,906.1
2023-04-16T06:31:49.714Z,903.1
2023-04-16T06:33:33.130Z,898.8
2023-04-16T06:35:16.535Z,896.1
2023-04-16T06:36:59.932Z,894.2
2023-04-16T06:42:09.201Z,891.8
2023-04-16T06:43:52.545Z,885.3
2023-04-16T06:45:35.980Z,878.1
2023-04-16T06:47:19.364Z,874.2
2023-04-16T06:49:02.744Z,870.5
2023-04-16T06:50:46.129Z,868
2023-04-16T06:52:29.537Z,857.6
2023-04-16T06:54:12.942Z,855.5
2023-04-16T06:59:22.174Z,849.7
2023-04-16T07:01:05.565Z,851.8
2023-04-16T07:02:48.929Z,854
2023-04-16T07:04:32.313Z,847.8
2023-04-16T07:06:15.722Z,843.6
2023-04-16T07:07:59.120Z,841.1
2023-04-16T07:09:42.497Z,845.1
2023-04-16T07:11:25.913Z,846.8
2023-04-16T07:13:09.294Z,843.5
2023-04-16T07:16:35.768Z,849.7
2023-04-16T07:18:19.170Z,849.4
2023-04-16T07:20:02.588Z,848.3
2023-04-16T07:21:45.975Z,849.3
2023-04-16T07:23:29.352Z,850.7
2023-04-16T07:25:12.749Z,852.2
2023-04-16T07:26:56.262Z,853.4
2023-04-16T07:28:39.554Z,852
2023-04-16T07:32:06.043Z,852.4
2023-04-16T07:33:49.418Z,852.6
2023-04-16T07:35:32.806Z,849.6
2023-04-16T07:37:16.214Z,848.5
2023-04-16T07:38:59.611Z,844.8
2023-04-16T07:40:43.012Z,842.5
2023-04-16T07:42:26.397Z,844.1
2023-04-16T07:44:09.806Z,843.6
2023-04-16T07:49:19.022Z,839.6
2023-04-16T07:51:02.473Z,838.3
2023-04-16T07:52:45.830Z,838.6
2023-04-16T07:54:29.240Z,837.4
2023-04-16T07:56:12.615Z,839.4
2023-04-16T07:57:56.015Z,840.6
2023-04-16T07:59:39.444Z,842.2
2023-04-16T08:01:22.810Z,848.8
2023-04-16T08:04:49.289Z,853.1
2023-04-16T08:06:32.681Z,855.2
2023-04-16T08:08:16.082Z,858
2023-04-16T08:09:59.480Z,857.8
2023-04-16T08:11:42.852Z,858.5
2023-04-16T08:13:26.271Z,856
2023-04-16T08:15:09.694Z,858.3
2023-04-16T08:16:53.102Z,862
2023-04-16T08:20:19.527Z,864.6
2023-04-16T08:22:02.967Z,865.3
2023-04-16T08:23:46.330Z,866.3
2023-04-16T08:25:29.731Z,868.4
2023-04-16T08:27:13.112Z,869.6
2023-04-16T08:28:56.513Z,873.2
2023-04-16T08:30:39.913Z,873.1
2023-04-16T08:32:23.297Z,876.6
2023-04-16T08:37:32.640Z,883.1
2023-04-16T08:39:16.020Z,898.5
2023-04-16T08:40:59.351Z,904.8
2023-04-16T08:42:42.730Z,906.5
2023-04-16T08:44:26.186Z,902.8
2023-04-16T08:46:09.531Z,898.6
2023-04-16T08:47:52.950Z,903.4
2023-04-16T08:49:36.384Z,908.1
2023-04-16T08:54:45.559Z,924.3
2023-04-16T08:56:28.966Z,920.6
2023-04-16T08:58:12.358Z,918.5
2023-04-16T08:59:55.744Z,923.3
2023-04-16T09:01:39.153Z,929.4
2023-04-16T09:03:22.558Z,934.4
2023-04-16T09:05:05.929Z,936.7
2023-04-16T09:06:49.329Z,939.6
2023-04-16T09:10:15.880Z,943
2023-04-16T09:11:59.207Z,946.3
2023-04-16T09:13:42.585Z,949.3
2023-04-16T09:15:26.033Z,950.4
2023-04-16T09:17:09.416Z,954.5
2023-04-16T09:18:52.788Z,964.3
2023-04-16T09:20:36.195Z,971.8
2023-04-16T09:22:19.606Z,976.5
2023-04-16T09:24:02.982Z,979.6
2023-04-16T09:27:29.513Z,981.9
2023-04-16T09:29:12.853Z,977.6
2023-04-16T09:30:56.237Z,976
2023-04-16T09:32:39.651Z,972.1
2023-04-16T09:34:23.111Z,974.6
2023-04-16T09:36:06.444Z,981.4
2023-04-16T09:37:49.822Z,978
2023-04-16T09:39:33.214Z,971.2
2023-04-16T09:42:59.702Z,957.1
2023-04-16T09:44:43.090Z,962.7
2023-04-16T09:46:26.481Z,959.1
2023-04-16T09:48:09.892Z,957.3
2023-04-16T09:49:53.284Z,956.7
2023-04-16T09:51:36.674Z,953.4
2023-04-16T09:53:20.138Z,950.7
2023-04-16T09:55:03.472Z,948.5
2023-04-16T10:00:12.734Z,937.9
2023-04-16T10:01:56.110Z,937.1
2023-04-16T10:03:39.512Z,935.6
2023-04-16T10:05:22.918Z,934.7
2023-04-16T10:07:06.300Z,932.2
2023-04-16T10:08:49.707Z,928.3
2023-04-16T10:10:33.084Z,925.4
2023-04-16T10:12:16.491Z,924.3
2023-04-16T10:15:42.977Z,920.3
2023-04-16T10:17:26.351Z,919.5
2023-04-16T10:19:09.758Z,920.5
2023-04-16T10:20:53.146Z,917.6
2023-04-16T10:22:36.537Z,916.1
2023-04-16T10:24:19.939Z,917.2
2023-04-16T10:26:03.344Z,922.7
2023-04-16T10:27:46.744Z,924.3
2023-04-16T10:32:55.963Z,933.6
2023-04-16T10:34:39.369Z,937.6
2023-04-16T10:36:22.776Z,938.1
2023-04-16T10:38:06.194Z,938.1
2023-04-16T10:39:49.545Z,944
2023-04-16T10:41:32.996Z,963.2
2023-04-16T10:43:16.497Z,997.2
2023-04-16T10:44:59.742Z,1009.2
2023-04-16T10:50:08.999Z,989.6
2023-04-16T10:51:52.418Z,992.7
2023-04-16T10:53:35.860Z,1000.1
2023-04-16T10:55:19.188Z,1006.3
2023-04-16T10:57:02.599Z,1015.1
2023-04-16T10:58:45.977Z,1018.7
2023-04-16T11:00:29.380Z,1022.8
2023-04-16T11:02:12.799Z,1023
2023-04-16T11:07:21.996Z,1022.6
2023-04-16T11:09:05.416Z,1032.5
2023-04-16T11:10:48.805Z,1035.3
2023-04-16T11:12:32.227Z,1040.4
2023-04-16T11:14:15.591Z,1038.3
2023-04-16T11:15:58.991Z,1035.4
2023-04-16T11:17:42.393Z,1039.2
2023-04-16T11:19:25.781Z,1039.6
2023-04-16T11:22:52.309Z,1050.7
2023-04-16T11:24:35.652Z,1051.3
2023-04-16T11:26:19.046Z,1057.7
2023-04-16T11:28:02.460Z,1072.7
2023-04-16T11:29:45.830Z,1094.6
2023-04-16T11:31:29.290Z,1099.8
2023-04-16T11:33:12.678Z,1105.4
2023-04-16T11:34:56.037Z,1094.2
2023-04-16T11:38:22.506Z,1084.6
2023-04-16T11:40:05.889Z,1082.8
2023-04-16T11:41:49.338Z,1084.3
2023-04-16T11:43:32.704Z,1083.8
2023-04-16T11:45:16.084Z,1083.1
2023-04-16T11:46:59.494Z,1084.4
2023-04-16T11:48:42.869Z,1083.7
2023-04-16T11:50:26.310Z,1082.7
2023-04-16T11:53:52.760Z,1079.9
2023-04-16T11:55:36.147Z,1087.5
2023-04-16T11:57:19.538Z,1097.7
2023-04-16T11:59:02.931Z,1106.2
2023-04-16T12:00:46.416Z,1103.8
2023-04-16T12:02:29.730Z,1102.8
2023-04-16T12:04:13.121Z,1095.8
2023-04-16T12:05:56.534Z,1092.8
2023-04-16T12:09:23.008Z,1102.7
2023-04-16T12:11:06.410Z,1105
2023-04-16T12:12:49.800Z,1109.3
2023-04-16T12:14:33.182Z,1110.3
2023-04-16T12:16:16.751Z,1113.3
2023-04-16T12:17:59.986Z,1115.2
2023-04-16T12:19:43.380Z,1117.3
2023-04-16T12:21:26.778Z,1120.8
2023-04-16T12:26:36.031Z,1128.1
2023-04-16T12:28:19.433Z,1130
2023-04-16T12:30:02.822Z,1129.5
2023-04-16T12:31:46.232Z,1133.3
2023-04-16T12:33:29.619Z,1138
2023-04-16T12:35:13.033Z,1138
2023-04-16T12:36:56.397Z,1141
2023-04-16T12:38:39.793Z,1144.6
2023-04-16T12:42:06.280Z,1144.9
2023-04-16T12:43:49.672Z,1147.3
2023-04-16T12:45:33.075Z,1148.2
2023-04-16T12:47:16.462Z,1151
2023-04-16T12:48:59.968Z,1155.3
2023-04-16T12:50:43.262Z,1160.1
2023-04-16T12:52:26.649Z,1161.2
2023-04-16T12:54:10.039Z,1164.7
2023-04-16T12:59:19.309Z,1170.6
2023-04-16T13:01:02.734Z,1172.7
2023-04-16T13:02:46.075Z,1172.7
2023-04-16T13:04:29.478Z,1174.5
2023-04-16T13:06:12.912Z,1177.8
2023-04-16T13:07:56.323Z,1177.5
2023-04-16T13:09:39.696Z,1175.2
2023-04-16T13:11:23.118Z,1173.7
2023-04-16T13:13:06.475Z,1171
2023-04-16T13:16:32.942Z,1167
2023-04-16T13:18:16.336Z,1171.5
2023-04-16T13:19:59.913Z,1173.3
2023-04-16T13:21:43.427Z,1172.1
2023-04-16T13:23:26.525Z,1166.6
2023-04-16T13:25:09.919Z,1169.7
2023-04-16T13:26:53.339Z,1172.4
2023-04-16T13:28:36.728Z,1178.7
2023-04-16T13:33:45.968Z,1186
2023-04-16T13:35:29.509Z,1181.2
2023-04-16T13:37:12.776Z,1175.1
2023-04-16T13:38:56.201Z,1179.3
2023-04-16T13:40:39.631Z,1186.5
2023-04-16T13:42:23.009Z,1191.1
2023-04-16T13:44:06.370Z,1196
2023-04-16T13:45:49.738Z,1195.6
2023-04-16T13:50:59.004Z,1194.5
2023-04-16T13:52:42.373Z,1192.3
2023-04-16T13:54:25.798Z,1187.1
2023-04-16T13:56:09.180Z,1183.4
2023-04-16T13:57:52.570Z,1177.5
2023-04-16T13:59:35.975Z,1169.6
2023-04-16T14:01:19.428Z,1169.6
2023-04-16T14:03:02.760Z,1177.7
2023-04-16T14:04:46.162Z,1175.5
2023-04-16T14:08:12.690Z,1180.1
2023-04-16T14:09:56.032Z,1193.8
2023-04-16T14:11:39.445Z,1219
2023-04-16T14:13:22.812Z,1224.7
2023-04-16T14:15:06.208Z,1223.2
2023-04-16T14:16:49.593Z,1225.3
2023-04-16T14:18:33.017Z,1223.7
2023-04-16T14:20:16.409Z,1227.8
2023-04-16T14:25:25.659Z,1247.4
2023-04-16T14:27:09.051Z,1254.1
2023-04-16T14:28:52.433Z,1258.3
2023-04-16T14:30:35.834Z,1261.1
2023-04-16T14:32:19.251Z,1260.7
2023-04-16T14:34:02.634Z,1258.4
2023-04-16T14:35:46.073Z,1253.4
2023-04-16T14:37:29.492Z,1251.4
2023-04-16T14:42:38.758Z,1239
2023-04-16T14:44:22.069Z,1236.5
2023-04-16T14:46:05.454Z,1232.1
2023-04-16T14:47:48.871Z,1230.8
2023-04-16T14:49:32.278Z,1231.5
2023-04-16T14:51:15.666Z,1229.7
2023-04-16T14:52:59.042Z,1230.3
2023-04-16T14:54:42.446Z,1233.2
2023-04-16T14:59:51.680Z,1238.1
2023-04-16T15:01:35.096Z,1240.4
2023-04-16T15:03:18.482Z,1239.3
2023-04-16T15:05:01.898Z,1239.6
2023-04-16T15:06:45.289Z,1241.6
2023-04-16T15:08:28.682Z,1245.4
2023-04-16T15:10:12.074Z,1248.3
2023-04-16T15:11:55.470Z,1247
2023-04-16T15:15:21.983Z,1257.8
2023-04-16T15:17:05.331Z,1264.3
2023-04-16T15:18:48.746Z,1260.6
2023-04-16T15:20:32.146Z,1259.5
2023-04-16T15:22:15.599Z,1256.7
2023-04-16T15:23:58.952Z,1257.4
2023-04-16T15:25:42.342Z,1262.1
2023-04-16T15:27:25.720Z,1265
2023-04-16T15:30:52.252Z,1265.8
2023-04-16T15:32:35.601Z,1266.4
2023-04-16T15:34:18.989Z,1271.6
2023-04-16T15:36:02.380Z,1280.3
2023-04-16T15:37:45.802Z,1283.2
2023-04-16T15:39:29.181Z,1287.7
2023-04-16T15:41:12.599Z,1290.6
2023-04-16T15:42:55.976Z,1296.7
2023-04-16T15:48:05.230Z,1310.7
2023-04-16T15:49:48.708Z,1312.6
2023-04-16T15:51:32.055Z,1311.2
2023-04-16T15:53:15.481Z,1311.5
2023-04-16T15:54:58.811Z,1313.1
2023-04-16T15:56:42.209Z,1313.1
2023-04-16T15:58:25.595Z,1314.7
2023-04-16T16:00:09.025Z,1317.2
2023-04-16T16:05:18.313Z,1322.6
2023-04-16T16:07:01.656Z,1322.1
2023-04-16T16:08:45.067Z,1320.6
2023-04-16T16:10:28.439Z,1318
2023-04-16T16:12:11.825Z,1317.1
2023-04-16T16:13:55.222Z,1318
2023-04-16T16:15:38.618Z,1317.7
2023-04-16T16:17:22.040Z,1318.3
2023-04-16T16:20:48.490Z,1319.1
2023-04-16T16:22:31.930Z,1320.5
2023-04-16T16:24:15.300Z,1320.5
2023-04-16T16:25:58.692Z,1323.6
2023-04-16T16:27:42.075Z,1323.2
2023-04-16T16:29:25.470Z,1322.8
2023-04-16T16:31:08.863Z,1324
2023-04-16T16:32:52.274Z,1325.5
2023-04-16T16:34:35.665Z,1324.6
2023-04-16T16:36:19.376Z,1323.5
2023-04-16T16:38:02.785Z,1320.2
2023-04-16T16:39:46.166Z,1319.3
2023-04-16T16:41:29.565Z,1318.6
2023-04-16T16:43:12.965Z,1318.4
2023-04-16T16:44:56.353Z,1320.5
2023-04-16T16:46:39.765Z,1324.6
2023-04-16T16:48:23.187Z,1322.7
2023-04-16T16:50:06.537Z,1326.2
2023-04-16T16:51:50.265Z,1326.9
2023-04-16T16:53:33.664Z,1321.1
2023-04-16T16:55:17.039Z,1319.8
2023-04-16T16:57:00.429Z,1321.5
2023-04-16T16:58:43.848Z,1327.8
2023-04-16T17:00:27.260Z,1329.1
2023-04-16T17:02:10.653Z,1333
2023-04-16T17:03:54.037Z,1337.8
2023-04-16T17:09:03.272Z,1337.5
2023-04-16T17:10:46.672Z,1334.5
2023-04-16T17:12:30.063Z,1337.6
2023-04-16T17:14:13.516Z,1342.1
2023-04-16T17:15:56.885Z,1337.5
2023-04-16T17:17:40.256Z,1339.8
2023-04-16T17:19:23.655Z,1342.6
2023-04-16T17:21:07.161Z,1343.6
2023-04-16T17:22:50.771Z,1346.8
2023-04-16T17:24:34.154Z,1345.1
2023-04-16T17:26:17.577Z,1342.6
2023-04-16T17:28:00.965Z,1344.7
2023-04-16T17:29:44.359Z,1344.5
2023-04-16T17:31:27.743Z,1347.3
2023-04-16T17:33:11.153Z,1348.7
2023-04-16T17:34:54.523Z,1349.3
2023-04-16T17:40:03.791Z,1350.1
2023-04-16T17:41:47.186Z,1350.1
2023-04-16T17:43:30.576Z,1349.2
2023-04-16T17:45:13.976Z,1348
2023-04-16T17:46:57.378Z,1347.8
2023-04-16T17:48:40.771Z,1347.5
2023-04-16T17:50:24.148Z,1349.5
2023-04-16T17:52:07.564Z,1352.8
2023-04-16T17:55:34.036Z,1350.3
2023-04-16T17:57:17.428Z,1352.7
2023-04-16T17:59:00.826Z,1353.3
2023-04-16T18:00:44.213Z,1352.8
2023-04-16T18:02:27.599Z,1355.3
2023-04-16T18:04:10.995Z,1352.5
2023-04-16T18:05:54.442Z,1360.5
2023-04-16T18:07:37.804Z,1369.1
2023-04-16T18:11:04.286Z,1371.5
2023-04-16T18:12:47.709Z,1372.1
2023-04-16T18:14:31.150Z,1373.4
2023-04-16T18:16:14.479Z,1373.1
2023-04-16T18:17:57.856Z,1370.2
2023-04-16T18:19:41.274Z,1368
2023-04-16T18:21:24.652Z,1368.5
2023-04-16T18:23:08.059Z,1367.8
2023-04-16T18:28:17.299Z,1372.2
2023-04-16T18:30:00.693Z,1373.7
2023-04-16T18:31:44.111Z,1377
2023-04-16T18:33:27.505Z,1375.7
2023-04-16T18:35:10.888Z,1377.6
2023-04-16T18:36:54.280Z,1382.8
2023-04-16T18:38:37.691Z,1383
2023-04-16T18:40:21.084Z,1378.8
2023-04-16T18:43:47.584Z,1379.7
2023-04-16T18:45:30.968Z,1379
2023-04-16T18:47:14.337Z,1378.8
2023-04-16T18:48:57.754Z,1378
2023-04-16T18:50:41.134Z,1381.4
2023-04-16T18:52:24.558Z,1384.2
2023-04-16T18:54:07.976Z,1386.1
2023-04-16T18:55:51.371Z,1383.6
2023-04-16T19:01:00.572Z,1379
2023-04-16T19:02:43.959Z,1377.3
2023-04-16T19:04:27.378Z,1376.5
2023-04-16T19:06:10.768Z,1378.7
2023-04-16T19:07:54.168Z,1378.2
2023-04-16T19:09:37.543Z,1381.3
2023-04-16T19:11:20.970Z,1382.3
2023-04-16T19:13:04.359Z,1384.2
2023-04-16T19:14:48.059Z,1383.7
2023-04-16T19:16:31.492Z,1389.6
2023-04-16T19:18:14.853Z,1389
2023-04-16T19:19:58.375Z,1385.2
2023-04-16T19:21:41.641Z,1379.7
2023-04-16T19:23:25.049Z,1375.5
2023-04-16T19:25:08.434Z,1368.3
2023-04-16T19:26:51.865Z,1351.7
2023-04-16T19:30:18.358Z,1254.7
2023-04-16T19:32:01.696Z,1254.3
2023-04-16T19:33:45.113Z,1261.2
2023-04-16T19:35:28.513Z,1267.3
2023-04-16T19:37:11.884Z,1272.6
2023-04-16T19:38:55.295Z,1276.3
2023-04-16T19:40:38.703Z,1269.8
2023-04-16T19:42:22.092Z,1258.6
2023-04-16T19:47:31.419Z,1250.3
2023-04-16T19:49:14.807Z,1254.3
2023-04-16T19:50:58.133Z,1249.7
2023-04-16T19:52:41.556Z,1244.8
2023-04-16T19:54:24.922Z,1239.5
2023-04-16T19:56:08.330Z,1235.4
2023-04-16T19:57:51.723Z,1227
2023-04-16T19:59:35.106Z,1224
2023-04-16T20:03:01.604Z,1219.1
2023-04-16T20:04:45.023Z,1217.6
2023-04-16T20:06:28.378Z,1218.5
2023-04-16T20:08:11.800Z,1227.7
2023-04-16T20:09:55.164Z,1239.7
2023-04-16T20:11:38.627Z,1249.1
2023-04-16T20:13:21.968Z,1259.1
2023-04-16T20:15:05.352Z,1265.1
2023-04-16T20:20:14.623Z,1266.6
2023-04-16T20:21:57.996Z,1262.1
2023-04-16T20:23:41.393Z,1254.6
2023-04-16T20:25:24.865Z,1245.7
2023-04-16T20:27:08.191Z,1240.2
2023-04-16T20:28:51.588Z,1237.1
2023-04-16T20:30:34.983Z,1238.6
2023-04-16T20:32:18.415Z,1246.8
2023-04-16T20:35:44.853Z,1270.7
2023-04-16T20:37:28.246Z,1275
2023-04-16T20:39:11.653Z,1279.3
2023-04-16T20:40:55.033Z,1281.6
2023-04-16T20:42:38.439Z,1281.4
2023-04-16T20:44:21.847Z,1278.7
2023-04-16T20:46:05.351Z,1278.3
2023-04-16T20:47:48.639Z,1274.3
2023-04-16T20:51:15.164Z,1271.5
2023-04-16T20:52:58.498Z,1268.7
2023-04-16T20:54:41.911Z,1266
2023-04-16T20:56:25.298Z,1268.3
2023-04-16T20:58:08.706Z,1265.1
2023-04-16T20:59:52.079Z,1258.1
2023-04-16T21:01:35.549Z,1254.1
2023-04-16T21:03:18.946Z,1250.6
2023-04-16T21:05:02.331Z,1249.7
2023-04-16T21:06:46.008Z,1245.9
2023-04-16T21:08:29.384Z,1243
2023-04-16T21:10:12.848Z,1243.3
2023-04-16T21:11:56.184Z,1241.4
2023-04-16T21:13:39.559Z,1236
2023-04-16T21:15:22.983Z,1230
2023-04-16T21:17:06.387Z,1227.7
2023-04-16T21:18:49.762Z,1227.7
2023-04-16T21:23:59.019Z,1231.8
2023-04-16T21:25:42.427Z,1230.7
2023-04-16T21:27:25.795Z,1225.8
2023-04-16T21:29:09.215Z,1220.1
2023-04-16T21:30:52.611Z,1218.2
2023-04-16T21:32:36.001Z,1219.5
2023-04-16T21:34:19.384Z,1218.8
2023-04-16T21:36:02.788Z,1214.4
2023-04-16T21:39:29.305Z,1211.4
2023-04-16T21:41:12.652Z,1207.8
2023-04-16T21:42:56.060Z,1207.7
2023-04-16T21:44:39.467Z,1207.6
2023-04-16T21:46:22.858Z,1214
2023-04-16T21:48:06.262Z,1215.3
2023-04-16T21:49:49.651Z,1213.4
2023-04-16T21:51:33.032Z,1208.7
2023-04-16T21:54:59.523Z,1205.8
2023-04-16T21:56:42.908Z,1206.1
2023-04-16T21:58:26.310Z,1202.2
2023-04-16T22:00:09.750Z,1204.5
2023-04-16T22:01:53.108Z,1206.2
2023-04-16T22:03:36.493Z,1206.5
2023-04-16T22:07:03.288Z,1208.2
2023-04-16T22:10:29.808Z,1211.4
2023-04-16T22:12:13.266Z,1216
2023-04-16T22:13:56.540Z,1217.3
2023-04-16T22:15:39.958Z,1218
2023-04-16T22:17:23.437Z,1216.7
2023-04-16T22:19:06.730Z,1216.7
2023-04-16T22:20:50.185Z,1218
2023-04-16T22:22:33.564Z,1217.8
2023-04-16T22:26:00.041Z,1210.5
2023-04-16T22:27:43.418Z,1207.2
2023-04-16T22:29:26.842Z,1202.6
2023-04-16T22:31:10.197Z,1202.2
2023-04-16T22:32:53.610Z,1199.3
2023-04-16T22:34:37.000Z,1194.8
2023-04-16T22:36:20.389Z,1194.7
2023-04-16T22:38:03.791Z,1196.3
2023-04-16T22:41:30.258Z,1197.1
2023-04-16T22:43:13.675Z,1204.5
2023-04-16T22:44:57.120Z,1208.5
2023-04-16T22:46:40.435Z,1209
2023-04-16T22:48:23.842Z,1204.5
2023-04-16T22:50:07.240Z,1206.6
2023-04-16T22:51:50.645Z,1203.4
2023-04-16T22:53:34.055Z,1198.7
2023-04-16T22:57:00.516Z,1192.6
2023-04-16T22:58:43.926Z,1183.6
2023-04-16T23:00:27.317Z,1183.2
2023-04-16T23:02:10.708Z,1178.2
2023-04-16T23:05:37.516Z,1172.1
2023-04-16T23:09:04.304Z,1197.2
2023-04-16T23:12:30.767Z,1158.7
2023-04-16T23:14:14.164Z,1157.5
2023-04-16T23:15:57.563Z,1149.5
2023-04-16T23:17:40.998Z,1128.7
2023-04-16T23:19:24.361Z,1099.1
2023-04-16T23:21:07.753Z,1082.6
2023-04-16T23:22:51.163Z,1064.7
2023-04-16T23:24:34.553Z,1052.4
2023-04-16T23:29:43.799Z,984.1
2023-04-16T23:31:27.188Z,978.2
2023-04-16T23:33:10.590Z,976.5
2023-04-16T23:34:53.982Z,974.2
2023-04-16T23:36:37.376Z,973.2
2023-04-16T23:38:20.764Z,973
2023-04-16T23:40:04.177Z,975.4
2023-04-16T23:41:47.571Z,976.5
2023-04-16T23:45:14.186Z,976.7
2023-04-16T23:46:57.494Z,976.7
2023-04-16T23:48:40.838Z,974.1
2023-04-16T23:50:24.220Z,976.3
2023-04-16T23:52:07.701Z,978.6
2023-04-16T23:53:51.027Z,982.1
2023-04-16T23:55:34.480Z,987.7
2023-04-16T23:57:17.858Z,988.6
